createdAt,value
2023-04-01T00:01:27.012Z,2.10
2023-04-01T00:07:16.247Z,1.80
2023-04-01T00:13:50.020Z,1.80
2023-04-01T00:20:53.712Z,1.70
2023-04-01T00:27:26.142Z,2.00
2023-04-01T00:33:35.248Z,1.60
2023-04-01T00:39:56.460Z,2.00
2023-04-01T00:46:34.265Z,2.10
2023-04-01T00:52:53.661Z,2.10
2023-04-01T00:59:24.688Z,2.20
2023-04-01T01:06:12.308Z,1.90
2023-04-01T01:12:37.889Z,1.90
2023-04-01T01:19:37.391Z,2.00
2023-04-01T01:26:32.738Z,2.20
2023-04-01T01:32:53.720Z,2.10
2023-04-01T01:39:44.788Z,3.10
2023-04-01T01:45:08.621Z,3.00
2023-04-01T01:50:39.389Z,2.80
2023-04-01T01:57:01.279Z,2.80
2023-04-01T02:03:37.810Z,3.90
2023-04-01T02:10:01.618Z,4.30
2023-04-01T02:16:53.704Z,4.10
2023-04-01T02:23:11.768Z,4.50
2023-04-01T02:29:58.952Z,4.60
2023-04-01T02:36:43.999Z,4.70
2023-04-01T02:43:18.386Z,4.50
2023-04-01T02:50:08.915Z,3.90
2023-04-01T02:56:56.733Z,4.70
2023-04-01T03:03:46.462Z,4.30
2023-04-01T03:10:32.130Z,4.90
2023-04-01T03:16:41.306Z,4.70
2023-04-01T03:22:31.989Z,4.50
2023-04-01T03:28:58.417Z,4.00
2023-04-01T03:35:06.939Z,3.80
2023-04-01T03:41:31.840Z,4.30
2023-04-01T03:48:03.063Z,3.60
2023-04-01T03:54:07.239Z,3.50
2023-04-01T04:00:16.819Z,3.30
2023-04-01T04:06:26.399Z,3.30
2023-04-01T04:13:12.600Z,3.50
2023-04-01T04:19:03.190Z,3.40
2023-04-01T04:25:28.777Z,3.60
2023-04-01T04:31:24.933Z,3.50
2023-04-01T04:36:55.104Z,3.50
2023-04-01T04:42:10.097Z,4.00
2023-04-01T04:47:31.845Z,3.30
2023-04-01T04:52:47.047Z,3.90
2023-04-01T04:58:02.507Z,4.30
2023-04-01T05:03:08.893Z,4.00
2023-04-01T05:08:37.079Z,3.90
2023-04-01T05:13:46.125Z,3.80
2023-04-01T05:19:00.309Z,4.30
2023-04-01T05:24:44.118Z,3.40
2023-04-01T05:30:02.675Z,3.50
2023-04-01T05:36:49.520Z,3.80
2023-04-01T05:42:39.403Z,4.10
2023-04-01T05:48:53.520Z,3.80
2023-04-01T05:54:38.964Z,4.60
2023-04-01T06:00:24.072Z,3.90
2023-04-01T06:05:50.468Z,4.80
2023-04-01T06:12:09.414Z,4.80
2023-04-01T06:18:44.252Z,4.90
2023-04-01T06:25:03.327Z,4.80
2023-04-01T06:31:58.476Z,4.60
2023-04-01T06:38:17.374Z,4.60
2023-04-01T06:45:18.354Z,4.20
2023-04-01T06:52:36.359Z,4.40
2023-04-01T06:59:03.076Z,4.20
2023-04-01T07:04:46.075Z,4.70
2023-04-01T07:10:11.436Z,5.30
2023-04-01T07:16:40.860Z,5.60
2023-04-01T07:22:39.982Z,4.60
2023-04-01T07:29:15.555Z,4.60
2023-04-01T07:35:55.066Z,4.10
2023-04-01T07:41:36.441Z,3.60
2023-04-01T07:47:31.790Z,3.90
2023-04-01T07:52:53.424Z,3.10
2023-04-01T07:58:21.928Z,3.30
2023-04-01T08:04:45.995Z,2.90
2023-04-01T08:10:24.548Z,3.00
2023-04-01T08:16:36.661Z,3.80
2023-04-01T08:21:46.887Z,2.70
2023-04-01T08:26:53.106Z,2.10
2023-04-01T08:32:10.083Z,2.10
2023-04-01T08:37:53.885Z,7.40
2023-04-01T08:43:35.387Z,2.20
2023-04-01T08:48:51.614Z,2.10
2023-04-01T08:54:18.131Z,2.00
2023-04-01T09:00:11.220Z,1.50
2023-04-01T09:06:06.307Z,1.70
2023-04-01T09:11:59.776Z,1.70
2023-04-01T09:17:47.470Z,2.10
2023-04-01T09:23:29.260Z,2.60
2023-04-01T11:51:00.469Z,1.90
2023-04-01T11:56:32.733Z,1.90
2023-04-01T12:01:44.415Z,1.40
2023-04-01T12:07:00.455Z,1.40
2023-04-01T12:12:25.261Z,1.40
2023-04-01T12:18:09.232Z,1.20
2023-04-01T12:23:11.324Z,0.90
2023-04-01T12:28:42.944Z,1.10
2023-04-01T12:34:03.152Z,3.80
2023-04-01T12:39:20.211Z,2.30
2023-04-01T12:45:04.305Z,1.30
2023-04-01T12:50:18.357Z,1.30
2023-04-01T12:55:44.018Z,1.20
2023-04-01T13:01:02.966Z,1.20
2023-04-01T13:06:45.787Z,1.60
2023-04-01T13:13:11.198Z,1.10
2023-04-01T13:18:33.545Z,1.10
2023-04-01T13:24:10.438Z,1.40
2023-04-01T13:29:47.099Z,1.40
2023-04-01T13:35:01.459Z,1.40
2023-04-01T13:41:02.191Z,1.70
2023-04-01T13:46:51.691Z,2.10
2023-04-01T13:52:25.488Z,2.90
2023-04-01T13:57:40.533Z,3.30
2023-04-01T14:02:55.859Z,2.90
2023-04-01T14:08:20.928Z,2.70
2023-04-01T14:13:42.289Z,2.50
2023-04-01T14:19:22.201Z,1.50
2023-04-01T14:24:54.107Z,1.10
2023-04-01T14:30:13.344Z,1.50
2023-04-01T14:35:54.226Z,2.80
2023-04-01T14:41:43.144Z,4.20
2023-04-01T14:47:30.722Z,2.00
2023-04-01T14:52:44.489Z,2.40
2023-04-01T14:58:13.693Z,2.30
2023-04-01T15:04:10.470Z,2.50
2023-04-01T15:09:39.926Z,2.40
2023-04-01T15:15:26.501Z,2.40
2023-04-01T15:20:57.998Z,2.10
2023-04-01T15:26:21.571Z,1.90
2023-04-01T15:31:39.715Z,2.60
2023-04-01T15:37:06.276Z,2.40
2023-04-01T15:42:30.564Z,2.30
2023-04-01T15:53:37.642Z,2.60
2023-04-01T15:59:06.467Z,2.20
2023-04-01T16:04:37.424Z,2.20
2023-04-01T16:09:58.088Z,1.90
2023-04-01T16:15:25.601Z,2.10
2023-04-01T16:21:09.059Z,3.90
2023-04-01T16:26:24.442Z,4.40
2023-04-01T16:31:58.571Z,4.40
2023-04-01T16:37:38.632Z,4.80
2023-04-01T16:43:10.164Z,3.90
2023-04-01T16:48:46.537Z,4.00
2023-04-01T16:54:32.067Z,5.10
2023-04-01T16:59:42.177Z,6.60
2023-04-01T17:05:14.524Z,5.20
2023-04-01T17:11:00.203Z,4.00
2023-04-01T17:16:29.389Z,3.90
2023-04-01T17:22:04.905Z,2.80
2023-04-01T17:27:35.028Z,2.90
2023-04-01T17:33:06.567Z,1.80
2023-04-01T17:38:46.096Z,2.00
2023-04-01T17:44:04.552Z,2.30
2023-04-01T17:49:27.934Z,2.80
2023-04-01T17:55:19.321Z,4.20
2023-04-01T18:00:42.315Z,4.70
2023-04-01T18:06:11.517Z,4.70
2023-04-01T18:11:40.189Z,6.70
2023-04-01T18:17:33.851Z,6.80
2023-04-01T18:22:56.313Z,6.60
2023-04-01T18:28:35.504Z,6.30
2023-04-01T18:34:21.649Z,6.30
2023-04-01T18:39:38.300Z,7.50
2023-04-01T18:45:08.082Z,8.20
2023-04-01T18:50:45.116Z,10.40
2023-04-01T18:55:57.381Z,12.10
2023-04-01T19:01:13.901Z,13.60
2023-04-01T19:06:31.855Z,14.60
2023-04-01T19:12:01.318Z,14.40
2023-04-01T19:17:48.189Z,21.40
2023-04-01T19:23:08.852Z,14.30
2023-04-01T19:34:25.906Z,16.30
2023-04-01T19:39:49.951Z,15.20
2023-04-01T19:45:34.245Z,14.80
2023-04-01T19:51:21.224Z,14.90
2023-04-01T19:56:44.721Z,16.20
2023-04-01T20:02:29.134Z,16.40
2023-04-01T20:07:47.250Z,17.40
2023-04-01T20:13:07.858Z,14.50
2023-04-01T20:18:49.840Z,17.50
2023-04-01T20:24:02.942Z,24.20
2023-04-01T20:30:01.073Z,28.00
2023-04-01T20:35:48.612Z,34.30
2023-04-01T20:41:28.580Z,25.60
2023-04-01T20:46:57.258Z,24.80
2023-04-01T20:52:42.053Z,17.60
2023-04-01T20:58:18.820Z,15.50
2023-04-01T21:03:32.489Z,14.00
2023-04-01T21:09:01.773Z,16.20
2023-04-01T21:14:37.062Z,19.20
2023-04-01T21:20:07.630Z,24.40
2023-04-01T21:25:57.986Z,27.60
2023-04-01T21:31:47.614Z,25.10
2023-04-01T21:37:04.466Z,20.10
2023-04-01T21:42:54.928Z,22.50
2023-04-01T21:48:25.419Z,26.60
2023-04-01T21:54:23.237Z,30.70
2023-04-01T22:00:12.278Z,36.20
2023-04-01T22:05:18.737Z,39.80
2023-04-01T22:10:40.201Z,38.00
2023-04-01T22:16:13.104Z,37.10
2023-04-01T22:21:50.322Z,38.70
2023-04-01T22:27:20.553Z,38.30
2023-04-01T22:33:01.568Z,38.10
2023-04-01T22:38:36.913Z,36.30
2023-04-01T22:43:50.473Z,40.40
2023-04-01T22:49:02.821Z,42.80
2023-04-01T22:54:45.171Z,36.40
2023-04-01T22:59:58.311Z,31.30
2023-04-01T23:05:05.138Z,30.70
2023-04-01T23:10:22.333Z,29.50
2023-04-01T23:15:47.740Z,30.30
2023-04-01T23:21:11.626Z,30.80
2023-04-01T23:26:27.093Z,33.80
2023-04-01T23:31:36.772Z,36.70
2023-04-01T23:36:40.883Z,37.10
2023-04-01T23:42:04.265Z,40.50
2023-04-01T23:47:29.507Z,43.80
2023-04-01T23:52:42.791Z,44.10
2023-04-01T23:58:28.084Z,48.10
